createdAt,value
2023-04-16T00:01:22.452Z,8.53
2023-04-16T00:03:24.595Z,9.10
2023-04-16T00:05:27.365Z,7.75
2023-04-16T00:07:29.231Z,9.38
2023-04-16T00:09:31.074Z,8.65
2023-04-16T00:11:32.877Z,6.70
2023-04-16T00:13:34.761Z,9.33
2023-04-16T00:15:36.585Z,9.20
2023-04-16T00:17:38.384Z,6.43
2023-04-16T00:19:40.468Z,8.30
2023-04-16T00:21:42.266Z,8.63
2023-04-16T00:23:44.049Z,7.17
2023-04-16T00:25:45.894Z,7.57
2023-04-16T00:27:47.701Z,6.35
2023-04-16T00:29:49.577Z,6.53
2023-04-16T00:31:51.481Z,11.50
2023-04-16T00:33:53.574Z,11.80
2023-04-16T00:35:55.382Z,8.57
2023-04-16T00:37:57.204Z,7.63
2023-04-16T00:39:59.042Z,8.23
2023-04-16T00:42:00.997Z,6.27
2023-04-16T00:44:02.867Z,7.47
2023-04-16T00:46:06.151Z,8.32
2023-04-16T00:48:07.998Z,9.82
2023-04-16T00:50:10.664Z,5.93
2023-04-16T00:54:14.284Z,8.45
2023-04-16T00:56:17.624Z,8.90
2023-04-16T00:58:19.684Z,8.48
2023-04-16T01:00:21.771Z,7.60
2023-04-16T01:02:23.754Z,6.53
2023-04-16T01:04:26.348Z,12.05
2023-04-16T01:06:28.630Z,8.40
2023-04-16T01:08:30.431Z,7.03
2023-04-16T01:10:32.235Z,7.90
2023-04-16T01:12:34.042Z,6.83
2023-04-16T01:14:36.561Z,6.77
2023-04-16T01:16:38.412Z,6.38
2023-04-16T01:18:40.278Z,6.80
2023-04-16T01:20:42.105Z,10.43
2023-04-16T01:22:43.963Z,9.37
2023-04-16T01:24:46.251Z,12.67
2023-04-16T01:26:48.098Z,13.10
2023-04-16T01:28:49.863Z,7.33
2023-04-16T01:30:51.745Z,9.57
2023-04-16T01:32:53.545Z,10.03
2023-04-16T01:34:55.350Z,8.77
2023-04-16T01:36:57.204Z,8.17
2023-04-16T01:38:59.063Z,8.18
2023-04-16T01:41:01.972Z,10.15
2023-04-16T01:43:04.158Z,11.60
2023-04-16T01:45:06.755Z,8.38
2023-04-16T01:47:08.666Z,6.75
2023-04-16T01:49:10.704Z,9.27
2023-04-16T01:51:12.773Z,9.43
2023-04-16T01:53:14.576Z,7.63
2023-04-16T01:55:16.505Z,11.53
2023-04-16T01:57:18.434Z,8.57
2023-04-16T01:59:20.720Z,9.98
2023-04-16T02:01:22.858Z,11.98
2023-04-16T02:03:25.164Z,10.10
2023-04-16T02:05:27.186Z,8.55
2023-04-16T02:07:29.010Z,7.80
2023-04-16T02:09:31.179Z,8.40
2023-04-16T02:11:32.985Z,7.78
2023-04-16T02:13:34.993Z,8.67
2023-04-16T02:15:36.804Z,9.10
2023-04-16T02:17:38.621Z,9.30
2023-04-16T02:19:40.431Z,7.97
2023-04-16T02:21:42.222Z,10.33
2023-04-16T02:23:47.627Z,10.47
2023-04-16T02:25:49.455Z,7.82
2023-04-16T02:27:51.237Z,8.60
2023-04-16T02:29:53.034Z,7.63
2023-04-16T02:31:54.889Z,11.43
2023-04-16T02:33:56.707Z,8.18
2023-04-16T02:35:58.519Z,11.23
2023-04-16T02:38:00.403Z,9.20
2023-04-16T02:40:02.266Z,10.77
2023-04-16T02:42:04.059Z,9.93
2023-04-16T02:44:06.086Z,9.05
2023-04-16T02:46:08.001Z,8.73
2023-04-16T02:48:10.049Z,7.72
2023-04-16T02:50:12.028Z,12.35
2023-04-16T02:52:15.533Z,8.90
2023-04-16T02:54:17.526Z,8.73
2023-04-16T02:56:19.312Z,11.50
2023-04-16T02:58:21.752Z,10.60
2023-04-16T03:00:23.633Z,9.65
2023-04-16T03:02:25.613Z,8.07
2023-04-16T03:04:27.527Z,9.48
2023-04-16T03:06:29.372Z,8.63
2023-04-16T03:08:31.372Z,8.57
2023-04-16T03:10:33.258Z,9.68
2023-04-16T03:12:36.061Z,9.05
2023-04-16T03:14:37.870Z,7.80
2023-04-16T03:16:39.750Z,7.80
2023-04-16T03:18:41.569Z,7.53
2023-04-16T03:20:43.430Z,8.60
2023-04-16T03:22:45.671Z,7.15
2023-04-16T03:24:47.449Z,7.18
2023-04-16T03:26:49.282Z,8.13
2023-04-16T03:28:51.140Z,7.50
2023-04-16T03:30:53.326Z,7.05
2023-04-16T03:32:55.199Z,6.65
2023-04-16T03:34:57.028Z,6.53
2023-04-16T03:36:58.975Z,8.63
2023-04-16T03:39:01.059Z,6.85
2023-04-16T03:41:02.878Z,6.68
2023-04-16T03:43:04.714Z,7.27
2023-04-16T03:45:06.995Z,7.53
2023-04-16T03:47:08.835Z,6.75
2023-04-16T03:49:11.190Z,7.13
2023-04-16T03:51:13.248Z,7.93
2023-04-16T03:53:15.514Z,8.13
2023-04-16T03:55:17.400Z,6.90
2023-04-16T03:57:19.337Z,8.13
2023-04-16T03:59:21.148Z,7.78
2023-04-16T04:01:23.047Z,7.33
2023-04-16T04:03:26.469Z,9.75
2023-04-16T04:05:28.465Z,8.07
2023-04-16T04:07:30.433Z,8.43
2023-04-16T04:09:34.056Z,8.88
2023-04-16T04:11:35.962Z,8.93
2023-04-16T04:13:37.769Z,9.10
2023-04-16T04:15:39.606Z,9.30
2023-04-16T04:17:41.459Z,9.25
2023-04-16T04:19:54.354Z,9.45
2023-04-16T04:22:02.157Z,9.45
2023-04-16T04:24:04.086Z,9.38
2023-04-16T04:26:07.493Z,8.68
2023-04-16T04:28:09.357Z,8.05
2023-04-16T04:30:11.718Z,7.83
2023-04-16T04:32:13.485Z,9.38
2023-04-16T04:34:15.309Z,12.83
2023-04-16T04:36:17.316Z,9.50
2023-04-16T04:38:20.240Z,8.98
2023-04-16T04:40:22.021Z,10.00
2023-04-16T04:42:24.192Z,9.90
2023-04-16T04:44:26.136Z,8.05
2023-04-16T04:46:28.009Z,9.95
2023-04-16T04:48:29.889Z,7.60
2023-04-16T04:50:31.695Z,11.80
2023-04-16T04:52:33.509Z,9.83
2023-04-16T04:54:35.470Z,7.83
2023-04-16T04:56:37.294Z,9.65
2023-04-16T04:58:39.113Z,9.17
2023-04-16T05:00:41.104Z,10.47
2023-04-16T05:02:43.014Z,9.93
2023-04-16T05:04:44.904Z,12.38
2023-04-16T05:06:46.770Z,9.30
2023-04-16T05:08:48.581Z,9.35
2023-04-16T05:10:50.548Z,11.87
2023-04-16T05:12:52.371Z,11.55
2023-04-16T05:14:54.245Z,9.35
2023-04-16T05:16:56.482Z,9.65
2023-04-16T05:18:58.512Z,17.20
2023-04-16T05:21:00.379Z,12.48
2023-04-16T05:23:02.238Z,8.98
2023-04-16T05:25:04.422Z,10.15
2023-04-16T05:27:06.629Z,10.30
2023-04-16T05:29:08.657Z,12.90
2023-04-16T05:31:10.713Z,13.98
2023-04-16T05:33:12.515Z,15.10
2023-04-16T05:35:15.986Z,14.70
2023-04-16T05:37:19.212Z,17.08
2023-04-16T05:39:21.310Z,13.17
2023-04-16T05:41:23.207Z,14.43
2023-04-16T05:43:25.090Z,14.88
2023-04-16T05:45:28.132Z,12.57
2023-04-16T05:47:30.120Z,11.63
2023-04-16T05:49:31.936Z,13.13
2023-04-16T05:51:33.741Z,12.17
2023-04-16T05:53:35.655Z,14.23
2023-04-16T05:55:37.466Z,12.48
2023-04-16T05:57:39.368Z,16.63
2023-04-16T05:59:41.302Z,14.10
2023-04-16T06:01:43.127Z,14.45
2023-04-16T06:03:45.507Z,14.83
2023-04-16T06:05:47.598Z,13.20
2023-04-16T06:07:49.394Z,12.45
2023-04-16T06:09:51.225Z,14.13
2023-04-16T06:11:53.031Z,13.03
2023-04-16T06:13:54.929Z,11.07
2023-04-16T06:15:56.744Z,10.73
2023-04-16T06:18:00.707Z,10.73
2023-04-16T06:20:02.808Z,9.75
2023-04-16T06:22:06.497Z,10.13
2023-04-16T06:24:08.349Z,12.63
2023-04-16T06:26:11.567Z,11.43
2023-04-16T06:28:13.328Z,12.05
2023-04-16T06:30:15.890Z,10.87
2023-04-16T06:32:17.821Z,9.52
2023-04-16T06:34:19.678Z,11.52
2023-04-16T06:36:21.470Z,12.40
2023-04-16T06:38:23.299Z,12.18
2023-04-16T06:40:25.384Z,11.57
2023-04-16T06:42:27.345Z,15.75
2023-04-16T06:44:29.181Z,17.38
2023-04-16T06:46:31.323Z,13.03
2023-04-16T06:48:33.230Z,15.50
2023-04-16T06:50:35.055Z,14.52
2023-04-16T06:52:36.908Z,13.87
2023-04-16T06:54:39.131Z,13.77
2023-04-16T06:56:41.025Z,14.63
2023-04-16T06:58:42.796Z,12.90
2023-04-16T07:00:44.638Z,13.57
2023-04-16T07:02:46.627Z,15.48
2023-04-16T07:04:48.653Z,15.00
2023-04-16T07:06:50.483Z,17.95
2023-04-16T07:08:52.317Z,16.07
2023-04-16T07:10:54.470Z,16.33
2023-04-16T07:12:56.324Z,16.95
2023-04-16T07:14:58.184Z,19.10
2023-04-16T07:17:00.120Z,15.93
2023-04-16T07:19:01.965Z,14.80
2023-04-16T07:21:04.297Z,14.33
2023-04-16T07:23:06.234Z,11.95
2023-04-16T07:25:08.603Z,14.48
2023-04-16T07:27:10.498Z,15.88
2023-04-16T07:29:12.572Z,15.05
2023-04-16T07:31:14.471Z,15.35
2023-04-16T07:33:16.387Z,17.10
2023-04-16T07:35:18.254Z,17.23
2023-04-16T07:37:20.072Z,21.17
2023-04-16T07:39:21.848Z,24.07
2023-04-16T07:41:23.797Z,18.40
2023-04-16T07:43:25.642Z,16.67
2023-04-16T07:45:27.461Z,18.05
2023-04-16T07:47:29.297Z,16.43
2023-04-16T07:49:31.141Z,19.73
2023-04-16T07:51:33.328Z,17.33
2023-04-16T07:53:35.236Z,15.63
2023-04-16T07:55:37.093Z,15.27
2023-04-16T07:57:38.898Z,16.30
2023-04-16T07:59:40.945Z,19.80
2023-04-16T08:01:42.798Z,18.30
2023-04-16T08:03:44.943Z,16.42
2023-04-16T08:05:46.963Z,19.02
2023-04-16T08:07:48.857Z,14.37
2023-04-16T08:09:53.508Z,13.68
2023-04-16T08:11:55.416Z,13.80
2023-04-16T08:13:57.231Z,14.00
2023-04-16T08:15:59.077Z,11.70
2023-04-16T08:18:01.037Z,13.20
2023-04-16T08:20:02.904Z,11.57
2023-04-16T08:22:04.761Z,10.93
2023-04-16T08:24:06.878Z,9.33
2023-04-16T08:26:08.669Z,12.18
2023-04-16T08:28:10.471Z,9.83
2023-04-16T08:30:12.543Z,11.20
2023-04-16T08:32:14.315Z,9.88
2023-04-16T08:34:16.153Z,12.77
2023-04-16T08:36:17.983Z,13.77
2023-04-16T08:38:19.857Z,13.63
2023-04-16T08:40:21.685Z,12.97
2023-04-16T08:42:34.380Z,13.60
2023-04-16T08:44:37.924Z,13.82
2023-04-16T08:46:40.776Z,15.20
2023-04-16T08:48:43.653Z,21.83
2023-04-16T08:50:45.556Z,20.73
2023-04-16T08:52:52.523Z,19.13
2023-04-16T08:55:01.013Z,18.63
2023-04-16T08:57:02.867Z,17.77
2023-04-16T08:59:07.608Z,19.08
2023-04-16T09:01:10.609Z,18.30
2023-04-16T09:03:12.857Z,18.40
2023-04-16T09:05:17.189Z,17.85
2023-04-16T09:07:19.193Z,17.35
2023-04-16T09:09:21.347Z,18.48
2023-04-16T09:11:23.317Z,16.77
2023-04-16T09:13:25.513Z,12.32
2023-04-16T09:15:27.469Z,12.82
2023-04-16T09:17:29.435Z,14.60
2023-04-16T09:19:31.352Z,14.73
2023-04-16T09:21:33.155Z,15.30
2023-04-16T09:23:35.046Z,13.90
2023-04-16T09:25:37.425Z,12.25
2023-04-16T09:27:39.612Z,14.30
2023-04-16T09:29:41.997Z,18.95
2023-04-16T09:32:01.354Z,17.48
2023-04-16T09:34:07.001Z,19.30
2023-04-16T09:36:08.985Z,19.40
2023-04-16T09:38:10.815Z,16.05
2023-04-16T09:40:12.685Z,14.15
2023-04-16T09:42:14.503Z,13.05
2023-04-16T09:44:16.314Z,14.23
2023-04-16T09:46:18.649Z,12.23
2023-04-16T09:48:30.580Z,18.48
2023-04-16T09:50:32.374Z,14.35
2023-04-16T09:52:41.414Z,14.93
2023-04-16T09:54:53.247Z,13.40
2023-04-16T09:56:56.856Z,17.13
2023-04-16T09:59:00.225Z,16.25
2023-04-16T10:01:02.912Z,16.80
2023-04-16T10:03:06.160Z,18.05
2023-04-16T10:05:08.339Z,23.83
2023-04-16T10:07:10.498Z,21.05
2023-04-16T10:09:12.500Z,22.27
2023-04-16T10:11:15.073Z,23.98
2023-04-16T10:13:19.217Z,21.05
2023-04-16T10:15:21.583Z,20.63
2023-04-16T10:17:24.005Z,23.02
2023-04-16T10:19:27.025Z,23.90
2023-04-16T10:21:34.303Z,21.10
2023-04-16T10:23:36.266Z,22.55
2023-04-16T10:25:38.538Z,22.57
2023-04-16T10:27:40.496Z,21.25
2023-04-16T10:29:42.321Z,20.85
2023-04-16T10:31:44.095Z,20.73
2023-04-16T10:33:45.883Z,19.15
2023-04-16T10:35:55.035Z,23.25
2023-04-16T10:38:26.311Z,20.00
2023-04-16T10:40:28.202Z,18.35
2023-04-16T10:42:30.060Z,17.58
2023-04-16T10:44:32.296Z,18.70
2023-04-16T10:46:34.916Z,18.20
2023-04-16T10:50:56.112Z,16.48
2023-04-16T10:53:20.916Z,18.48
2023-04-16T10:55:22.761Z,15.90
2023-04-16T10:57:24.972Z,19.33
2023-04-16T10:59:31.018Z,17.70
2023-04-16T11:01:34.341Z,17.48
2023-04-16T11:03:36.547Z,15.85
2023-04-16T11:05:47.527Z,20.48
2023-04-16T11:07:49.984Z,27.30
2023-04-16T11:10:05.533Z,22.33
2023-04-16T11:12:07.376Z,22.23
2023-04-16T11:14:09.182Z,18.00
2023-04-16T11:16:11.303Z,21.03
2023-04-16T11:18:13.150Z,15.40
2023-04-16T11:20:25.878Z,18.48
2023-04-16T11:22:27.761Z,18.13
2023-04-16T11:24:33.045Z,17.58
2023-04-16T11:26:34.863Z,17.90
2023-04-16T11:28:36.837Z,16.30
2023-04-16T11:30:39.204Z,18.15
2023-04-16T11:32:41.280Z,16.13
2023-04-16T11:34:46.792Z,17.27
2023-04-16T11:36:49.819Z,17.45
2023-04-16T11:38:51.747Z,19.08
2023-04-16T11:40:54.272Z,16.20
2023-04-16T11:42:57.228Z,16.65
2023-04-16T11:45:00.837Z,14.40
2023-04-16T11:47:06.159Z,14.68
2023-04-16T11:49:08.251Z,16.50
2023-04-16T11:51:10.234Z,14.82
2023-04-16T11:53:12.070Z,16.33
2023-04-16T11:55:13.902Z,20.08
2023-04-16T11:57:16.538Z,18.07
2023-04-16T11:59:25.658Z,15.95
2023-04-16T12:01:27.498Z,14.05
2023-04-16T12:03:46.185Z,14.47
2023-04-16T12:05:48.770Z,13.95
2023-04-16T12:07:50.690Z,16.48
2023-04-16T12:10:04.946Z,18.25
2023-04-16T12:12:07.251Z,14.68
2023-04-16T12:14:12.659Z,17.60
2023-04-16T12:16:19.904Z,13.57
2023-04-16T12:18:27.004Z,17.92
2023-04-16T12:20:41.906Z,16.42
2023-04-16T12:22:48.040Z,22.13
2023-04-16T12:24:49.859Z,16.63
2023-04-16T12:26:57.639Z,19.43
2023-04-16T12:29:17.203Z,18.05
2023-04-16T12:31:20.449Z,18.85
2023-04-16T12:33:22.386Z,19.33
2023-04-16T12:35:34.037Z,21.25
2023-04-16T12:37:36.048Z,21.50
2023-04-16T12:39:37.851Z,20.67
2023-04-16T12:41:41.238Z,21.90
2023-04-16T12:43:43.066Z,16.17
2023-04-16T12:45:44.951Z,12.60
2023-04-16T12:47:47.321Z,15.48
2023-04-16T12:49:49.160Z,16.15
2023-04-16T12:51:50.949Z,10.87
2023-04-16T12:53:52.929Z,13.57
2023-04-16T12:55:54.795Z,13.52
2023-04-16T12:57:56.665Z,11.10
2023-04-16T12:59:58.684Z,12.82
2023-04-16T13:02:01.583Z,17.67
2023-04-16T13:04:03.982Z,11.50
2023-04-16T13:06:05.959Z,13.32
2023-04-16T13:08:07.822Z,16.52
2023-04-16T13:10:10.181Z,13.10
2023-04-16T13:12:12.183Z,15.95
2023-04-16T13:14:14.023Z,13.90
2023-04-16T13:16:16.520Z,14.95
2023-04-16T13:18:18.367Z,16.92
2023-04-16T13:20:22.469Z,15.07
2023-04-16T13:22:25.799Z,17.85
2023-04-16T13:24:27.634Z,14.07
2023-04-16T13:26:29.431Z,15.60
2023-04-16T13:28:31.471Z,16.70
2023-04-16T13:30:33.654Z,17.02
2023-04-16T13:32:35.531Z,17.75
2023-04-16T13:34:37.466Z,15.55
2023-04-16T13:36:39.308Z,14.35
2023-04-16T13:38:42.256Z,9.90
2023-04-16T13:40:44.161Z,14.02
2023-04-16T13:42:45.990Z,11.95
2023-04-16T13:44:49.431Z,15.13
2023-04-16T13:46:51.686Z,13.40
2023-04-16T13:48:53.875Z,17.33
2023-04-16T13:50:56.253Z,12.10
2023-04-16T13:52:58.158Z,17.27
2023-04-16T13:55:00.637Z,15.23
2023-04-16T13:57:02.442Z,14.80
2023-04-16T13:59:04.297Z,12.57
2023-04-16T14:01:06.093Z,12.10
2023-04-16T14:03:07.977Z,11.23
2023-04-16T14:05:09.870Z,11.52
2023-04-16T14:07:11.791Z,13.80
2023-04-16T14:09:13.601Z,12.60
2023-04-16T14:11:15.598Z,16.30
2023-04-16T14:13:17.427Z,13.48
2023-04-16T14:15:19.359Z,11.97
2023-04-16T14:17:21.244Z,8.70
2023-04-16T14:19:23.068Z,9.15
2023-04-16T14:21:24.921Z,7.10
2023-04-16T14:23:27.129Z,7.50
2023-04-16T14:25:29.084Z,10.23
2023-04-16T14:27:31.065Z,6.57
2023-04-16T14:29:32.953Z,7.20
2023-04-16T14:31:34.928Z,8.60
2023-04-16T14:33:36.991Z,5.53
2023-04-16T14:35:38.808Z,5.70
2023-04-16T14:37:41.650Z,7.80
2023-04-16T14:39:43.493Z,4.85
2023-04-16T14:41:45.596Z,6.10
2023-04-16T14:43:47.387Z,6.10
2023-04-16T14:45:52.906Z,6.27
2023-04-16T14:47:54.803Z,6.07
2023-04-16T14:49:56.665Z,5.22
2023-04-16T14:51:58.502Z,5.10
2023-04-16T14:54:00.473Z,5.73
2023-04-16T14:56:02.374Z,5.18
2023-04-16T14:58:04.464Z,4.95
2023-04-16T15:00:10.803Z,4.55
2023-04-16T15:02:12.805Z,4.20
2023-04-16T15:04:14.875Z,4.28
2023-04-16T15:06:17.229Z,5.55
2023-04-16T15:08:19.157Z,5.00
2023-04-16T15:10:21.108Z,7.10
2023-04-16T15:12:23.135Z,5.32
2023-04-16T15:14:25.160Z,5.82
2023-04-16T15:16:27.215Z,7.18
2023-04-16T15:18:29.443Z,5.55
2023-04-16T15:20:31.385Z,6.90
2023-04-16T15:22:33.206Z,13.18
2023-04-16T15:24:35.064Z,7.73
2023-04-16T15:26:37.101Z,5.63
2023-04-16T15:28:38.918Z,9.68
2023-04-16T15:30:41.310Z,7.03
2023-04-16T15:32:44.520Z,6.63
2023-04-16T15:34:46.702Z,7.60
2023-04-16T15:36:48.576Z,6.45
2023-04-16T15:38:50.720Z,6.47
2023-04-16T15:40:52.634Z,5.55
2023-04-16T15:42:55.773Z,6.93
2023-04-16T15:45:00.271Z,7.13
2023-04-16T15:47:02.320Z,7.80
2023-04-16T15:49:04.442Z,6.47
2023-04-16T15:51:06.498Z,7.28
2023-04-16T15:53:08.650Z,6.78
2023-04-16T15:55:10.859Z,8.18
2023-04-16T15:57:12.674Z,5.20
2023-04-16T15:59:14.497Z,7.23
2023-04-16T16:01:16.574Z,6.77
2023-04-16T16:03:19.146Z,6.50
2023-04-16T16:07:25.226Z,6.03
2023-04-16T16:09:28.094Z,6.75
2023-04-16T16:11:30.056Z,8.13
2023-04-16T16:13:31.939Z,6.60
2023-04-16T16:15:34.178Z,6.70
2023-04-16T16:17:36.277Z,10.63
2023-04-16T16:19:38.281Z,7.28
2023-04-16T16:21:40.326Z,8.18
2023-04-16T16:23:42.256Z,5.90
2023-04-16T16:25:44.065Z,6.55
2023-04-16T16:27:46.143Z,6.23
2023-04-16T16:29:48.027Z,5.28
2023-04-16T16:31:49.949Z,8.20
2023-04-16T16:33:51.917Z,7.00
2023-04-16T16:35:53.755Z,6.72
2023-04-16T16:37:57.386Z,7.10
2023-04-16T16:39:59.432Z,9.50
2023-04-16T16:42:01.462Z,6.45
2023-04-16T16:44:03.578Z,10.60
2023-04-16T16:46:07.511Z,8.40
2023-04-16T16:48:09.506Z,6.05
2023-04-16T16:50:11.772Z,6.55
2023-04-16T16:52:13.633Z,6.15
2023-04-16T16:54:15.670Z,5.93
2023-04-16T16:56:17.491Z,6.50
2023-04-16T16:58:19.311Z,8.97
2023-04-16T17:00:21.934Z,7.33
2023-04-16T17:02:23.998Z,7.45
2023-04-16T17:04:26.131Z,7.80
2023-04-16T17:06:28.407Z,5.03
2023-04-16T17:08:30.463Z,7.60
2023-04-16T17:10:32.291Z,10.90
2023-04-16T17:12:34.149Z,8.37
2023-04-16T17:14:35.992Z,8.50
2023-04-16T17:16:37.806Z,9.33
2023-04-16T17:18:39.748Z,8.63
2023-04-16T17:20:41.586Z,8.57
2023-04-16T17:22:43.447Z,11.10
2023-04-16T17:24:45.344Z,11.07
2023-04-16T17:26:47.151Z,9.37
2023-04-16T17:28:49.030Z,9.20
2023-04-16T17:30:51.473Z,7.38
2023-04-16T17:32:53.292Z,8.52
2023-04-16T17:34:56.015Z,9.90
2023-04-16T17:36:57.791Z,10.95
2023-04-16T17:38:59.617Z,9.73
2023-04-16T17:41:01.658Z,10.07
2023-04-16T17:43:03.557Z,11.10
2023-04-16T17:45:06.056Z,8.05
2023-04-16T17:47:08.037Z,7.07
2023-04-16T17:49:10.090Z,8.60
2023-04-16T17:51:12.441Z,8.35
2023-04-16T17:53:14.569Z,8.00
2023-04-16T17:55:16.879Z,10.35
2023-04-16T17:57:18.901Z,12.70
2023-04-16T17:59:20.732Z,6.53
2023-04-16T18:01:22.644Z,9.00
2023-04-16T18:03:24.906Z,7.00
2023-04-16T18:05:27.950Z,6.45
2023-04-16T18:07:30.100Z,6.07
2023-04-16T18:09:32.086Z,6.55
2023-04-16T18:11:34.354Z,6.45
2023-04-16T18:13:43.963Z,6.28
2023-04-16T18:15:46.043Z,5.88
2023-04-16T18:17:48.022Z,7.25
2023-04-16T18:19:50.145Z,9.02
2023-04-16T18:21:52.184Z,7.38
2023-04-16T18:23:54.310Z,10.95
2023-04-16T18:25:56.503Z,10.23
2023-04-16T18:27:59.141Z,7.47
2023-04-16T18:30:01.390Z,9.00
2023-04-16T18:32:04.736Z,11.30
2023-04-16T18:34:06.953Z,7.20
2023-04-16T18:36:08.983Z,7.88
2023-04-16T18:38:10.984Z,10.52
2023-04-16T18:40:13.374Z,9.75
2023-04-16T18:42:15.394Z,9.30
2023-04-16T18:44:17.947Z,10.73
2023-04-16T18:46:20.101Z,13.15
2023-04-16T18:48:22.180Z,8.18
2023-04-16T18:50:24.535Z,8.18
2023-04-16T18:52:27.867Z,8.02
2023-04-16T18:54:29.723Z,6.90
2023-04-16T18:56:31.595Z,10.83
2023-04-16T18:58:33.499Z,7.87
2023-04-16T19:00:35.582Z,7.32
2023-04-16T19:02:37.820Z,7.55
2023-04-16T19:04:39.775Z,12.18
2023-04-16T19:06:41.720Z,14.05
2023-04-16T19:08:43.551Z,14.73
2023-04-16T19:10:48.909Z,12.67
2023-04-16T19:12:50.895Z,9.07
2023-04-16T19:14:52.769Z,8.85
2023-04-16T19:16:54.611Z,8.75
2023-04-16T19:18:56.460Z,8.00
2023-04-16T19:21:01.511Z,10.70
2023-04-16T19:23:05.803Z,10.18
2023-04-16T19:25:08.117Z,8.00
2023-04-16T19:27:10.006Z,8.57
2023-04-16T19:29:11.980Z,8.98
2023-04-16T19:31:13.900Z,11.07
2023-04-16T19:33:15.985Z,7.73
2023-04-16T19:35:17.815Z,8.93
2023-04-16T19:37:19.690Z,8.80
2023-04-16T19:39:21.633Z,7.47
2023-04-16T19:41:23.464Z,11.43
2023-04-16T19:43:25.370Z,10.17
2023-04-16T19:45:27.812Z,10.57
2023-04-16T19:47:29.692Z,9.18
2023-04-16T19:49:33.683Z,16.80
2023-04-16T19:51:36.103Z,10.77
2023-04-16T19:53:38.271Z,8.77
2023-04-16T19:55:40.916Z,11.57
2023-04-16T19:59:44.560Z,13.45
2023-04-16T20:01:46.731Z,14.87
2023-04-16T20:03:48.661Z,9.50
2023-04-16T20:05:50.623Z,9.23
2023-04-16T20:07:53.728Z,10.95
2023-04-16T20:09:55.550Z,9.98
2023-04-16T20:11:58.114Z,12.13
2023-04-16T20:14:01.001Z,11.40
2023-04-16T20:16:03.431Z,11.13
2023-04-16T20:18:05.611Z,13.15
2023-04-16T20:20:10.320Z,9.30
2023-04-16T20:22:12.172Z,10.15
2023-04-16T20:24:15.491Z,11.27
2023-04-16T20:26:20.065Z,12.13
2023-04-16T20:28:21.879Z,11.23
2023-04-16T20:30:28.931Z,12.43
2023-04-16T20:32:31.063Z,16.17
2023-04-16T20:34:32.889Z,15.93
2023-04-16T20:36:34.749Z,15.50
2023-04-16T20:38:37.587Z,17.87
2023-04-16T20:40:39.848Z,17.50
2023-04-16T20:42:46.319Z,12.25
2023-04-16T20:44:55.847Z,9.98
2023-04-16T20:46:58.033Z,11.00
2023-04-16T20:49:01.250Z,12.88
2023-04-16T20:51:03.849Z,9.25
2023-04-16T20:53:05.707Z,9.90
2023-04-16T20:55:08.343Z,8.80
2023-04-16T20:59:13.417Z,12.30
2023-04-16T21:01:15.284Z,12.68
2023-04-16T21:03:17.490Z,10.40
2023-04-16T21:05:21.438Z,11.70
2023-04-16T21:07:23.364Z,10.25
2023-04-16T21:09:25.554Z,15.85
2023-04-16T21:11:29.359Z,17.13
2023-04-16T21:13:31.347Z,21.13
2023-04-16T21:15:34.774Z,21.92
2023-04-16T21:17:36.774Z,16.27
2023-04-16T21:19:40.209Z,15.65
2023-04-16T21:21:42.312Z,13.13
2023-04-16T21:23:44.205Z,11.45
2023-04-16T21:25:46.100Z,11.03
2023-04-16T21:27:47.941Z,12.15
2023-04-16T21:29:49.839Z,13.50
2023-04-16T21:31:51.751Z,16.95
2023-04-16T21:33:54.188Z,17.70
2023-04-16T21:35:56.023Z,14.50
2023-04-16T21:37:57.888Z,16.57
2023-04-16T21:39:59.980Z,18.73
2023-04-16T21:42:01.865Z,21.48
2023-04-16T21:44:03.722Z,16.10
2023-04-16T21:46:05.584Z,21.27
2023-04-16T21:48:07.444Z,18.77
2023-04-16T21:50:09.609Z,14.07
2023-04-16T21:52:14.155Z,12.57
2023-04-16T21:54:18.604Z,14.25
2023-04-16T21:56:21.040Z,9.02
2023-04-16T21:58:22.869Z,13.73
2023-04-16T22:00:24.879Z,12.82
2023-04-16T22:02:27.454Z,13.27
2023-04-16T22:04:38.449Z,12.27
2023-04-16T22:06:40.641Z,13.32
2023-04-16T22:08:42.504Z,14.50
2023-04-16T22:10:44.420Z,16.10
2023-04-16T22:12:46.642Z,15.77
2023-04-16T22:14:59.554Z,15.90
2023-04-16T22:17:04.423Z,16.70
2023-04-16T22:19:06.221Z,20.52
2023-04-16T22:21:08.051Z,17.53
2023-04-16T22:23:09.818Z,15.17
2023-04-16T22:25:11.820Z,18.33
2023-04-16T22:27:13.701Z,14.00
2023-04-16T22:29:15.744Z,19.33
2023-04-16T22:31:17.681Z,13.93
2023-04-16T22:33:19.493Z,11.93
2023-04-16T22:35:21.298Z,19.23
2023-04-16T22:37:23.115Z,11.47
2023-04-16T22:39:25.016Z,14.17
2023-04-16T22:41:27.196Z,16.17
2023-04-16T22:43:28.998Z,14.13
2023-04-16T22:45:30.894Z,16.40
2023-04-16T22:47:32.733Z,12.10
2023-04-16T22:49:35.141Z,16.23
2023-04-16T22:51:38.222Z,14.65
2023-04-16T22:53:40.056Z,15.35
2023-04-16T22:55:41.977Z,17.77
2023-04-16T22:57:43.774Z,13.40
2023-04-16T22:59:45.572Z,15.60
2023-04-16T23:01:47.448Z,21.43
2023-04-16T23:03:49.507Z,17.42
2023-04-16T23:05:51.357Z,12.15
2023-04-16T23:07:53.166Z,15.47
2023-04-16T23:09:55.023Z,13.53
2023-04-16T23:11:57.450Z,12.02
2023-04-16T23:13:59.323Z,14.90
2023-04-16T23:16:01.226Z,17.40
2023-04-16T23:18:03.175Z,13.68
2023-04-16T23:20:07.666Z,14.80
2023-04-16T23:22:10.060Z,14.38
2023-04-16T23:24:11.903Z,14.70
2023-04-16T23:26:13.727Z,13.65
2023-04-16T23:28:15.827Z,12.77
2023-04-16T23:30:17.864Z,15.07
2023-04-16T23:32:19.676Z,13.52
2023-04-16T23:34:21.529Z,14.45
2023-04-16T23:36:23.383Z,14.93
2023-04-16T23:38:25.199Z,14.98
2023-04-16T23:40:26.984Z,16.27
2023-04-16T23:42:28.855Z,14.77
2023-04-16T23:44:30.756Z,12.30
2023-04-16T23:46:32.641Z,15.05
2023-04-16T23:48:34.432Z,15.07
2023-04-16T23:50:36.244Z,14.57
2023-04-16T23:52:38.104Z,10.73
2023-04-16T23:54:39.911Z,12.65
2023-04-16T23:56:42.028Z,12.37
2023-04-16T23:58:43.899Z,12.85
